Time;durP1;ratioP1;P1;durP2;ratioP2;P2;SDS_P1;SDS_P2;PMS_P1;PMS_P2;Temp;Humidity;BMP_temperature;BMP_pressure;BME280_temperature;BME280_humidity;BME280_pressure;Samples;Min_cycle;Max_cycle;Signal;HPM_P1;HPM_P2
2024/01/03 00:01:23;;;;;;;7.90;5.45;;;;;;;6.15;100.00;92697.19;5054881;28;20143;-72
2024/01/03 00:03:50;;;;;;;6.80;5.28;;;;;;;6.17;100.00;92702.09;5050428;28;20078;-72
2024/01/03 00:06:18;;;;;;;6.57;5.13;;;;;;;6.10;100.00;92690.13;5049515;28;20037;-72
2024/01/03 00:08:45;;;;;;;7.47;5.35;;;;;;;6.19;100.00;92707.78;5051713;28;20418;-72
2024/01/03 00:11:19;;;;;;;6.22;5.10;;;;;;;6.27;100.00;92712.72;5055111;28;20128;-72
2024/01/03 00:14:06;;;;;;;7.65;4.43;;;;;;;6.14;100.00;92680.31;5051138;28;20060;-72
2024/01/03 00:16:42;;;;;;;7.57;5.13;;;;;;;6.32;100.00;92707.81;5053380;28;20055;-72
2024/01/03 00:19:16;;;;;;;6.10;4.57;;;;;;;6.36;100.00;92703.88;5053277;28;20056;-72
2024/01/03 00:21:45;;;;;;;6.18;4.88;;;;;;;6.31;100.00;92713.09;5048455;28;20053;-72
2024/01/03 00:24:15;;;;;;;6.00;4.53;;;;;;;6.36;100.00;92710.75;5047985;28;20049;-72
2024/01/03 00:26:42;;;;;;;5.88;4.40;;;;;;;6.39;100.00;92698.38;5050274;28;20049;-72
2024/01/03 00:29:47;;;;;;;5.35;4.00;;;;;;;6.40;100.00;92694.84;5048716;28;20053;-72
2024/01/03 00:32:14;;;;;;;6.32;4.43;;;;;;;6.42;100.00;92699.75;5055307;28;20045;-72
2024/01/03 00:34:42;;;;;;;6.88;4.47;;;;;;;6.35;100.00;92694.66;5052686;28;20421;-72
2024/01/03 00:37:22;;;;;;;6.15;4.70;;;;;;;6.36;100.00;92698.00;5048074;28;20077;-72
2024/01/03 00:39:49;;;;;;;5.93;4.22;;;;;;;6.34;100.00;92687.22;5057453;28;20053;-72
2024/01/03 00:42:16;;;;;;;5.95;4.40;;;;;;;6.42;100.00;92692.09;5057704;28;20057;-72
2024/01/03 00:44:43;;;;;;;7.93;4.75;;;;;;;6.41;100.00;92691.34;5031796;28;20059;-72
2024/01/03 00:47:10;;;;;;;7.80;4.15;;;;;;;6.38;100.00;92684.06;5051106;28;20127;-72
2024/01/03 00:49:38;;;;;;;6.95;4.75;;;;;;;6.39;100.00;92670.31;5049062;28;20067;-72
2024/01/03 00:52:06;;;;;;;5.80;4.05;;;;;;;6.23;100.00;92656.22;5052528;28;20088;-72
2024/01/03 00:54:36;;;;;;;6.45;4.18;;;;;;;6.44;100.00;92674.84;5055625;28;20126;-73
2024/01/03 00:57:04;;;;;;;5.93;4.00;;;;;;;6.46;100.00;92680.53;5047640;28;20059;-72
2024/01/03 00:59:34;;;;;;;5.07;3.47;;;;;;;6.49;100.00;92687.78;5055758;28;20049;-73
2024/01/03 01:02:03;;;;;;;7.18;3.67;;;;;;;6.62;100.00;92697.19;5048983;28;20057;-72
2024/01/03 01:04:31;;;;;;;6.40;4.22;;;;;;;6.54;100.00;92692.31;5051160;28;20465;-72
2024/01/03 01:06:59;;;;;;;6.32;3.90;;;;;;;6.60;100.00;92696.63;5057389;28;20495;-72
2024/01/03 01:09:26;;;;;;;4.78;3.40;;;;;;;6.62;100.00;92704.84;5049978;28;20079;-72
2024/01/03 01:11:55;;;;;;;5.18;3.97;;;;;;;6.67;100.00;92705.03;5052035;28;20513;-72
2024/01/03 01:14:22;;;;;;;4.70;3.53;;;;;;;6.70;100.00;92701.31;5050104;28;20049;-72
2024/01/03 01:16:49;;;;;;;5.75;3.72;;;;;;;6.52;100.00;92666.19;5051561;28;20057;-72
2024/01/03 01:19:16;;;;;;;5.55;3.45;;;;;;;6.74;100.00;92697.38;5048154;28;20059;-72
2024/01/03 01:21:43;;;;;;;5.28;3.22;;;;;;;6.73;100.00;92690.72;5048995;28;20049;-72
2024/01/03 01:24:10;;;;;;;7.68;5.05;;;;;;;6.81;100.00;92687.19;5047938;28;20106;-72
2024/01/03 01:26:37;;;;;;;6.32;4.53;;;;;;;6.68;100.00;92672.66;5048303;28;20044;-72
2024/01/03 01:29:06;;;;;;;5.10;3.55;;;;;;;6.85;100.00;92687.56;5050499;28;20048;-72
2024/01/03 01:31:32;;;;;;;4.57;3.15;;;;;;;6.84;100.00;92679.09;5048072;28;20045;-73
2024/01/03 01:33:59;;;;;;;4.55;3.35;;;;;;;6.89;100.00;92678.53;5055202;28;20045;-73
2024/01/03 01:36:26;;;;;;;5.07;3.45;;;;;;;6.89;100.00;92686.19;5053152;28;20080;-74
2024/01/03 01:38:53;;;;;;;5.10;3.03;;;;;;;6.97;100.00;92678.28;5050465;28;20451;-74
2024/01/03 01:41:20;;;;;;;8.85;5.07;;;;;;;6.96;100.00;92669.06;5051881;28;20045;-74
2024/01/03 01:43:47;;;;;;;8.68;4.95;;;;;;;7.04;100.00;92680.84;5052307;28;20400;-74
2024/01/03 01:46:17;;;;;;;6.85;4.25;;;;;;;7.10;100.00;92685.16;5059442;28;20511;-74
2024/01/03 01:48:44;;;;;;;9.45;5.18;;;;;;;7.12;100.00;92684.94;5058677;28;20045;-73
2024/01/03 01:51:13;;;;;;;8.93;5.38;;;;;;;7.12;100.00;92674.72;5050835;28;20409;-73
2024/01/03 01:53:42;;;;;;;12.07;6.40;;;;;;;7.02;100.00;92660.59;5060589;28;20045;-73
2024/01/03 01:56:11;;;;;;;10.93;6.30;;;;;;;7.02;100.00;92664.91;5050344;28;20055;-73
2024/01/03 01:58:42;;;;;;;15.27;9.93;;;;;;;6.90;100.00;92675.75;5054708;28;20060;-73
2024/01/03 02:01:08;;;;;;;20.27;11.85;;;;;;;5.92;100.00;92679.69;5054317;28;20143;-73
2024/01/03 02:03:39;;;;;;;22.90;13.45;;;;;;;5.95;100.00;92682.63;5057412;28;20059;-73
2024/01/03 02:06:09;;;;;;;19.45;11.77;;;;;;;5.85;100.00;92683.03;5053239;28;20041;-73
2024/01/03 02:08:36;;;;;;;22.05;12.77;;;;;;;5.81;100.00;92701.41;5051958;28;20505;-73
2024/01/03 02:11:04;;;;;;;26.95;14.40;;;;;;;5.12;100.00;92699.63;5053124;28;20048;-73
2024/01/03 02:13:31;;;;;;;26.58;15.13;;;;;;;5.32;100.00;92696.38;5052212;28;20036;-73
2024/01/03 02:15:59;;;;;;;29.38;14.63;;;;;;;5.36;100.00;92707.75;5049825;28;20047;-73
2024/01/03 02:18:27;;;;;;;23.95;15.00;;;;;;;5.45;100.00;92705.81;5057700;28;20993;-73
2024/01/03 02:20:57;;;;;;;23.58;14.40;;;;;;;5.43;100.00;92705.22;5053479;28;20052;-74
2024/01/03 02:23:25;;;;;;;19.98;12.98;;;;;;;5.50;100.00;92703.47;5051517;28;20609;-73
2024/01/03 02:25:52;;;;;;;36.17;21.10;;;;;;;5.48;100.00;92680.75;5054141;28;20047;-73
2024/01/03 02:28:19;;;;;;;24.17;14.27;;;;;;;5.47;100.00;92666.44;5055015;28;20041;-73
2024/01/03 02:30:48;;;;;;;16.85;10.43;;;;;;;5.51;100.00;92671.94;5050978;28;20071;-74
2024/01/03 02:33:15;;;;;;;13.77;8.70;;;;;;;5.66;100.00;92681.19;5052075;28;20052;-74
2024/01/03 02:35:42;;;;;;;13.15;7.85;;;;;;;5.73;100.00;92680.25;5050786;28;20057;-74
2024/01/03 02:38:09;;;;;;;16.45;8.85;;;;;;;5.75;100.00;92680.06;5056267;28;20041;-73
2024/01/03 02:40:37;;;;;;;12.93;7.35;;;;;;;5.74;100.00;92691.22;5049874;28;20044;-72
2024/01/03 02:43:05;;;;;;;11.77;6.72;;;;;;;5.78;100.00;92694.19;5053263;28;20056;-72
2024/01/03 02:45:31;;;;;;;8.05;5.32;;;;;;;5.82;100.00;92685.16;5050464;28;20155;-72
2024/01/03 02:47:58;;;;;;;7.18;4.78;;;;;;;5.85;100.00;92680.47;5054472;28;20114;-72
2024/01/03 02:50:25;;;;;;;7.18;4.82;;;;;;;5.84;100.00;92670.47;5052839;28;20426;-72
2024/01/03 02:52:52;;;;;;;6.93;4.72;;;;;;;5.84;100.00;92663.59;5050771;28;20140;-72
2024/01/03 02:55:20;;;;;;;7.28;4.60;;;;;;;5.78;100.00;92635.56;5050546;28;20045;-72
2024/01/03 02:57:49;;;;;;;6.50;4.30;;;;;;;5.87;100.00;92649.66;5056887;28;20048;-73
2024/01/03 03:00:16;;;;;;;5.85;4.22;;;;;;;5.86;100.00;92651.44;5051533;28;20037;-73
2024/01/03 03:02:43;;;;;;;7.68;4.72;;;;;;;5.95;100.00;92638.50;5050141;28;20059;-72
2024/01/03 03:05:10;;;;;;;7.40;4.72;;;;;;;5.88;100.00;92643.63;5059189;28;20418;-72
2024/01/03 03:07:37;;;;;;;11.10;6.95;;;;;;;5.95;100.00;92638.50;5053958;28;20071;-72
2024/01/03 03:10:04;;;;;;;10.90;6.53;;;;;;;5.94;100.00;92645.38;5055489;28;20049;-72
2024/01/03 03:12:31;;;;;;;6.80;4.55;;;;;;;5.93;100.00;92643.78;5054957;28;20446;-72
2024/01/03 03:15:03;;;;;;;7.57;5.35;;;;;;;5.98;100.00;92638.88;5052204;28;20071;-72
2024/01/03 03:17:30;;;;;;;8.18;5.30;;;;;;;6.04;100.00;92634.03;5052984;28;20359;-72
2024/01/03 03:19:57;;;;;;;5.53;4.10;;;;;;;6.06;100.00;92630.28;5040621;28;20049;-72
2024/01/03 03:22:23;;;;;;;7.47;4.95;;;;;;;6.10;100.00;92620.47;5049640;28;20052;-72
2024/01/03 03:24:52;;;;;;;5.75;4.00;;;;;;;6.28;100.00;92633.44;5053197;28;20051;-72
2024/01/03 03:27:18;;;;;;;5.07;3.47;;;;;;;6.28;100.00;92625.78;5056949;28;20074;-72
2024/01/03 03:29:45;;;;;;;6.40;4.22;;;;;;;6.36;100.00;92626.56;5062236;28;20052;-72
2024/01/03 03:32:14;;;;;;;11.52;7.00;;;;;;;6.50;100.00;92624.78;5055198;28;20074;-72
2024/01/03 03:34:41;;;;;;;14.35;8.10;;;;;;;6.51;100.00;92611.84;5050256;28;20055;-72
2024/01/03 03:37:08;;;;;;;6.03;4.60;;;;;;;6.50;100.00;92609.47;5048102;28;20503;-72
2024/01/03 03:39:35;;;;;;;6.47;4.72;;;;;;;6.50;100.00;92594.16;5052433;28;20127;-71
2024/01/03 03:42:02;;;;;;;5.35;3.60;;;;;;;6.50;100.00;92599.28;5050542;28;20855;-71
2024/01/03 03:44:29;;;;;;;5.00;3.42;;;;;;;6.24;100.00;92576.16;5055063;28;20075;-71
2024/01/03 03:46:56;;;;;;;6.60;3.85;;;;;;;6.50;100.00;92605.16;5057242;28;20044;-72
2024/01/03 03:49:24;;;;;;;5.97;4.15;;;;;;;6.47;100.00;92599.69;5052320;28;20056;-73
2024/01/03 03:51:57;;;;;;;4.95;3.53;;;;;;;6.55;100.00;92615.56;5057266;28;20063;-72
2024/01/03 03:54:24;;;;;;;7.18;3.85;;;;;;;6.54;100.00;92606.31;5053455;28;20541;-73
2024/01/03 03:56:51;;;;;;;7.65;3.60;;;;;;;6.60;100.00;92602.19;5060706;28;20045;-74
2024/01/03 03:59:18;;;;;;;9.02;3.10;;;;;;;6.57;100.00;92602.59;5054606;28;20052;-73
2024/01/03 04:01:49;;;;;;;5.85;3.30;;;;;;;6.55;100.00;92597.69;5055835;28;20049;-72
2024/01/03 04:04:24;;;;;;;5.63;3.15;;;;;;;6.54;100.00;92606.31;5059994;28;20048;-73
2024/01/03 04:06:50;;;;;;;4.90;3.20;;;;;;;6.55;100.00;92594.34;5050802;28;20049;-73
2024/01/03 04:09:19;;;;;;;4.53;3.03;;;;;;;6.68;100.00;92601.19;5049006;28;20051;-72
2024/01/03 04:11:46;;;;;;;6.55;3.70;;;;;;;6.66;100.00;92605.69;5060426;28;20524;-73
2024/01/03 04:14:13;;;;;;;5.50;3.50;;;;;;;6.60;100.00;92586.88;5049797;28;20045;-72
2024/01/03 04:16:39;;;;;;;5.57;3.35;;;;;;;6.54;100.00;92585.13;5048696;28;20041;-72
2024/01/03 04:19:06;;;;;;;5.93;3.80;;;;;;;6.65;100.00;92615.16;5049647;28;20521;-72
2024/01/03 04:21:34;;;;;;;9.25;4.63;;;;;;;6.52;100.00;92592.19;5055679;28;20059;-72
2024/01/03 04:24:01;;;;;;;7.93;4.28;;;;;;;6.66;100.00;92615.91;5054921;28;20060;-72
2024/01/03 04:26:28;;;;;;;7.72;4.45;;;;;;;6.67;100.00;92620.81;5051444;28;20102;-72
2024/01/03 04:28:55;;;;;;;5.80;4.25;;;;;;;6.71;100.00;92625.53;5048845;28;20072;-72
2024/01/03 04:31:22;;;;;;;7.65;4.70;;;;;;;6.49;100.00;92592.59;5055617;28;20048;-72
2024/01/03 04:33:49;;;;;;;6.95;4.63;;;;;;;6.63;100.00;92624.75;5062997;28;20051;-72
2024/01/03 04:36:16;;;;;;;6.55;4.80;;;;;;;6.58;100.00;92627.13;5061750;28;20053;-72
2024/01/03 04:51:00;;;;;;;7.40;5.03;;;;;;;7.03;100.00;92626.41;5128688;27;20449;-73
2024/01/03 04:53:27;;;;;;;17.08;9.80;;;;;;;7.03;100.00;92649.41;5134514;27;20047;-73
2024/01/03 04:55:54;;;;;;;15.80;8.55;;;;;;;6.86;100.00;92633.75;5129844;27;20053;-73
2024/01/03 04:58:21;;;;;;;11.20;7.57;;;;;;;6.83;100.00;92639.25;5130304;27;20042;-73
2024/01/03 05:00:48;;;;;;;11.50;7.38;;;;;;;6.81;100.00;92641.22;5130180;27;20058;-73
2024/01/03 05:03:16;;;;;;;11.98;7.32;;;;;;;6.68;100.00;92654.78;5126376;27;20127;-73
2024/01/03 05:05:43;;;;;;;21.80;13.73;;;;;;;6.46;100.00;92652.47;5128474;27;20073;-72
2024/01/03 05:08:11;;;;;;;23.65;14.18;;;;;;;6.55;100.00;92642.84;5132854;27;20047;-73
2024/01/03 05:10:38;;;;;;;20.45;12.23;;;;;;;6.58;100.00;92647.56;5127162;27;20039;-72
2024/01/03 05:13:05;;;;;;;11.77;8.27;;;;;;;6.53;100.00;92645.56;5125386;27;20051;-73
2024/01/03 05:15:32;;;;;;;9.88;5.32;;;;;;;6.30;100.00;92627.34;5130746;27;20078;-72
2024/01/03 05:17:59;;;;;;;6.13;3.85;;;;;;;6.47;100.00;92648.94;5131024;27;20048;-72
2024/01/03 05:20:29;;;;;;;6.43;3.65;;;;;;;6.35;100.00;92638.53;5130616;27;20408;-73
2024/01/03 05:22:56;;;;;;;8.18;4.32;;;;;;;6.51;100.00;92646.75;5138145;27;20056;-72
2024/01/03 05:25:24;;;;;;;7.13;3.75;;;;;;;6.50;100.00;92645.19;5127944;27;20126;-73
2024/01/03 05:27:51;;;;;;;4.30;3.03;;;;;;;6.50;100.00;92642.66;5127663;27;20049;-72
2024/01/03 05:30:18;;;;;;;5.93;3.00;;;;;;;6.38;100.00;92622.84;5126411;27;20050;-73
2024/01/03 05:32:45;;;;;;;4.75;2.83;;;;;;;6.54;100.00;92654.03;5137449;27;20075;-73
2024/01/03 05:35:12;;;;;;;5.10;2.97;;;;;;;6.48;100.00;92653.03;5131950;27;20062;-73
2024/01/03 05:37:39;;;;;;;5.38;2.97;;;;;;;6.60;100.00;92655.00;5129356;27;20578;-73
2024/01/03 05:40:07;;;;;;;9.18;3.50;;;;;;;6.50;100.00;92650.28;5138556;27;20051;-73
2024/01/03 05:42:36;;;;;;;4.03;2.50;;;;;;;6.44;100.00;92648.53;5130203;27;20046;-73
2024/01/03 05:45:03;;;;;;;3.67;2.50;;;;;;;6.51;100.00;92642.44;5129698;27;20900;-72
2024/01/03 05:47:30;;;;;;;5.07;2.60;;;;;;;6.41;100.00;92635.22;5131044;27;20051;-72
2024/01/03 05:49:57;;;;;;;4.53;3.00;;;;;;;6.40;100.00;92641.28;5128865;27;20058;-72
2024/01/03 05:52:24;;;;;;;4.90;2.90;;;;;;;6.48;100.00;92642.06;5111499;27;20044;-73
2024/01/03 05:54:50;;;;;;;4.80;3.15;;;;;;;6.51;100.00;92639.91;5118504;27;20052;-73
2024/01/03 05:57:17;;;;;;;5.13;2.95;;;;;;;6.60;100.00;92640.47;5119540;27;20054;-73
2024/01/03 05:59:46;;;;;;;5.20;2.65;;;;;;;6.65;100.00;92640.66;5114204;27;20139;-73
2024/01/03 06:02:13;;;;;;;3.92;2.58;;;;;;;6.70;100.00;92634.94;5115864;27;20051;-73
2024/01/03 06:04:40;;;;;;;5.18;2.88;;;;;;;6.75;100.00;92642.03;5114117;27;20047;-73
2024/01/03 06:07:07;;;;;;;3.35;2.40;;;;;;;6.87;100.00;92632.75;5110749;27;20036;-73
2024/01/03 06:09:33;;;;;;;5.90;3.17;;;;;;;6.86;100.00;92631.19;5114360;27;20050;-73
2024/01/03 06:12:00;;;;;;;5.43;3.15;;;;;;;6.77;100.00;92627.28;5126894;27;20054;-73
2024/01/03 06:14:27;;;;;;;5.43;3.30;;;;;;;6.91;100.00;92645.91;5120697;27;20043;-73
2024/01/03 06:16:56;;;;;;;8.63;4.43;;;;;;;7.01;100.00;92641.16;5114503;27;20043;-73
2024/01/03 06:19:23;;;;;;;9.95;5.90;;;;;;;7.09;100.00;92655.47;5123585;27;21476;-73
2024/01/03 06:21:50;;;;;;;7.88;5.32;;;;;;;7.06;100.00;92650.78;5121325;27;20047;-73
2024/01/03 06:24:17;;;;;;;12.60;7.38;;;;;;;7.09;100.00;92653.69;5113537;27;20043;-73
2024/01/03 06:26:44;;;;;;;15.40;8.10;;;;;;;6.85;100.00;92619.41;5116991;27;20046;-73
2024/01/03 06:29:11;;;;;;;9.85;6.40;;;;;;;7.00;100.00;92644.72;5116415;27;20391;-73
2024/01/03 06:31:38;;;;;;;12.15;6.43;;;;;;;7.05;100.00;92639.00;5119641;27;20053;-73
2024/01/03 06:34:06;;;;;;;14.70;7.97;;;;;;;6.97;100.00;92636.66;5116439;27;20418;-74
2024/01/03 06:36:33;;;;;;;12.93;8.43;;;;;;;7.00;100.00;92639.59;5112524;27;20154;-73
2024/01/03 06:39:00;;;;;;;12.82;8.73;;;;;;;6.85;100.00;92611.75;5112579;27;20051;-73
2024/01/03 06:41:27;;;;;;;8.02;6.18;;;;;;;6.90;100.00;92626.47;5111900;27;20057;-73
2024/01/03 06:43:54;;;;;;;8.90;6.20;;;;;;;6.79;100.00;92626.09;5114170;27;20047;-73
2024/01/03 06:46:21;;;;;;;10.90;7.05;;;;;;;6.82;100.00;92624.91;5114411;27;20047;-72
2024/01/03 06:48:48;;;;;;;12.38;7.57;;;;;;;6.64;100.00;92589.81;5112527;27;20066;-73
2024/01/03 06:51:22;;;;;;;11.95;7.80;;;;;;;6.77;100.00;92607.63;5114566;27;20524;-73
2024/01/03 06:53:49;;;;;;;8.00;4.82;;;;;;;6.83;100.00;92618.81;5114118;27;20587;-73
2024/01/03 06:56:20;;;;;;;6.43;3.80;;;;;;;6.93;100.00;92624.28;5111597;27;20488;-72
2024/01/03 06:58:47;;;;;;;8.27;4.90;;;;;;;7.03;100.00;92626.41;5113998;27;20050;-73
2024/01/03 07:01:14;;;;;;;6.95;3.83;;;;;;;7.07;100.00;92630.13;5111999;27;20094;-72
2024/01/03 07:03:41;;;;;;;6.30;3.90;;;;;;;7.07;100.00;92624.25;5112054;27;20051;-72
2024/01/03 07:06:08;;;;;;;7.22;4.18;;;;;;;7.17;100.00;92627.16;5108828;27;20047;-73
2024/01/03 07:08:35;;;;;;;8.10;4.93;;;;;;;7.30;100.00;92625.53;5112573;27;20519;-73
2024/01/03 07:11:02;;;;;;;6.38;4.25;;;;;;;7.01;100.00;92582.44;5111042;27;20044;-73
2024/01/03 07:13:29;;;;;;;6.63;4.20;;;;;;;7.26;100.00;92622.59;5110373;27;20055;-73
2024/01/03 07:15:56;;;;;;;5.70;3.20;;;;;;;7.28;100.00;92620.63;5112113;27;20514;-73
2024/01/03 07:18:23;;;;;;;7.80;4.63;;;;;;;7.42;100.00;92620.56;5114718;27;20065;-73
2024/01/03 07:20:50;;;;;;;8.65;5.13;;;;;;;7.35;100.00;92613.72;5112172;27;20051;-73
2024/01/03 07:23:17;;;;;;;7.72;4.80;;;;;;;7.39;100.00;92613.28;5113002;27;20485;-73
2024/01/03 07:25:45;;;;;;;8.40;4.18;;;;;;;7.40;100.00;92628.44;5109388;27;20050;-73
2024/01/03 07:28:13;;;;;;;13.50;6.15;;;;;;;7.44;100.00;92627.03;5111848;27;20050;-73
2024/01/03 07:30:40;;;;;;;12.18;6.93;;;;;;;7.42;100.00;92639.25;5113237;27;20043;-73
2024/01/03 07:33:07;;;;;;;14.30;6.63;;;;;;;7.41;100.00;92640.22;5118186;27;20039;-73
2024/01/03 07:35:34;;;;;;;14.27;6.00;;;;;;;7.41;100.00;92634.34;5111831;27;20802;-72
2024/01/03 07:38:00;;;;;;;12.25;6.22;;;;;;;7.40;100.00;92630.22;5120213;27;20455;-73
2024/01/03 07:40:27;;;;;;;9.85;5.47;;;;;;;7.28;100.00;92617.28;5123320;27;20376;-72
2024/01/03 07:42:56;;;;;;;8.60;4.80;;;;;;;7.42;100.00;92623.13;5120716;27;20062;-73
2024/01/03 07:45:23;;;;;;;7.40;3.40;;;;;;;7.39;100.00;92618.41;5113588;27;20146;-73
2024/01/03 07:47:50;;;;;;;5.93;2.88;;;;;;;7.44;100.00;92627.03;5115300;27;20074;-72
2024/01/03 07:50:18;;;;;;;6.47;3.78;;;;;;;7.37;100.00;92626.28;5109685;27;20052;-72
2024/01/03 07:52:45;;;;;;;5.75;3.83;;;;;;;7.46;100.00;92634.50;5110712;27;20062;-72
2024/01/03 07:55:12;;;;;;;8.30;3.75;;;;;;;7.46;100.00;92637.06;5110891;27;20047;-72
2024/01/03 07:57:39;;;;;;;7.43;4.20;;;;;;;7.34;100.00;92617.25;5111405;27;20576;-72
2024/01/03 08:00:09;;;;;;;9.60;5.97;;;;;;;7.59;100.00;92631.09;5109373;27;20043;-73
2024/01/03 08:02:36;;;;;;;11.18;5.38;;;;;;;7.63;100.00;92639.91;5109207;27;20043;-72
2024/01/03 08:05:03;;;;;;;7.53;4.75;;;;;;;7.65;100.00;92634.59;5112463;27;20062;-73
2024/01/03 08:07:30;;;;;;;8.50;5.47;;;;;;;7.65;100.00;92644.81;5119042;27;20079;-73
2024/01/03 08:09:57;;;;;;;11.90;7.00;;;;;;;7.64;100.00;92638.91;5113369;27;20034;-73
2024/01/03 08:12:24;;;;;;;16.77;8.55;;;;;;;7.70;100.00;92650.91;5110622;27;20645;-73
2024/01/03 08:14:51;;;;;;;13.50;7.50;;;;;;;7.78;100.00;92639.63;5112064;27;20385;-72
2024/01/03 08:17:19;;;;;;;8.77;5.22;;;;;;;7.81;100.00;92644.31;5109641;27;20047;-72
2024/01/03 08:19:46;;;;;;;10.02;5.07;;;;;;;7.79;100.00;92642.97;5113314;27;20048;-72
2024/01/03 08:22:13;;;;;;;5.82;3.90;;;;;;;7.77;100.00;92644.97;5108313;27;20047;-73
2024/01/03 08:24:40;;;;;;;5.38;3.30;;;;;;;7.83;100.00;92644.13;5115814;27;20051;-73
2024/01/03 08:27:07;;;;;;;2.97;2.38;;;;;;;7.71;99.78;92631.22;5121028;27;20415;-72
2024/01/03 08:29:36;;;;;;;3.78;2.40;;;;;;;7.69;99.97;92633.97;5112501;27;20051;-73
2024/01/03 08:32:03;;;;;;;3.70;2.08;;;;;;;7.79;100.00;92630.97;5110130;27;20054;-72
2024/01/03 08:34:31;;;;;;;4.22;2.20;;;;;;;7.65;100.00;92614.94;5110067;27;20047;-72
2024/01/03 08:36:58;;;;;;;4.00;1.88;;;;;;;7.75;100.00;92634.94;5109695;27;20599;-72
2024/01/03 08:39:25;;;;;;;2.92;2.00;;;;;;;7.82;100.00;92643.34;5119873;28;20045;-73
2024/01/03 08:41:53;;;;;;;5.53;2.30;;;;;;;7.81;100.00;92646.09;5108114;28;20054;-73
2024/01/03 08:44:20;;;;;;;4.30;1.95;;;;;;;7.80;99.83;92629.19;5109146;28;20462;-73
2024/01/03 08:46:47;;;;;;;4.10;2.15;;;;;;;7.87;99.79;92643.50;5110973;28;20626;-73
2024/01/03 08:49:14;;;;;;;4.60;2.40;;;;;;;7.88;99.54;92645.06;5110573;28;20500;-72
2024/01/03 08:51:44;;;;;;;4.72;2.70;;;;;;;7.91;100.00;92648.97;5110459;28;20044;-73
2024/01/03 08:54:11;;;;;;;5.65;2.60;;;;;;;7.95;100.00;92641.69;5108563;28;20047;-73
2024/01/03 08:56:39;;;;;;;5.40;3.00;;;;;;;7.93;100.00;92636.78;5110815;28;20389;-73
2024/01/03 08:59:06;;;;;;;6.40;3.22;;;;;;;8.08;100.00;92648.47;5110782;28;20070;-73
2024/01/03 09:01:34;;;;;;;4.97;2.97;;;;;;;8.11;100.00;92635.28;5112801;27;20047;-73
2024/01/03 09:04:01;;;;;;;5.47;3.13;;;;;;;8.10;100.00;92631.94;5114238;28;20048;-73
2024/01/03 09:06:28;;;;;;;6.50;3.67;;;;;;;7.91;100.00;92597.84;5112828;28;20130;-73
2024/01/03 09:08:57;;;;;;;6.60;4.45;;;;;;;8.11;100.00;92625.06;5113620;28;20043;-72
2024/01/03 09:11:25;;;;;;;9.18;6.93;;;;;;;8.22;99.96;92633.81;5116897;28;20051;-72
2024/01/03 09:13:52;;;;;;;8.88;5.90;;;;;;;8.22;99.93;92632.06;5113358;28;20039;-73
2024/01/03 09:16:22;;;;;;;7.95;5.20;;;;;;;8.25;98.76;92623.94;5110811;27;20039;-73
2024/01/03 09:18:49;;;;;;;7.07;4.18;;;;;;;8.23;98.17;92620.03;5110250;27;20520;-73
2024/01/03 09:21:16;;;;;;;6.68;4.40;;;;;;;8.26;97.91;92622.19;5108630;28;20089;-73
2024/01/03 09:23:43;;;;;;;8.15;4.78;;;;;;;8.24;98.29;92621.63;5109771;27;20044;-72
2024/01/03 09:26:11;;;;;;;10.55;4.97;;;;;;;8.26;97.66;92617.84;5117246;27;20053;-73
2024/01/03 09:28:39;;;;;;;10.18;6.68;;;;;;;8.22;98.66;92613.34;5111876;27;20055;-73
2024/01/03 09:31:06;;;;;;;9.68;6.30;;;;;;;8.15;97.67;92603.19;5113558;27;20042;-73
2024/01/03 09:33:33;;;;;;;10.75;6.38;;;;;;;8.32;97.18;92615.44;5111699;27;20048;-73
2024/01/03 09:36:00;;;;;;;12.38;6.40;;;;;;;8.31;97.71;92613.84;5112059;27;20670;-73
2024/01/03 09:38:27;;;;;;;10.18;5.40;;;;;;;8.21;97.44;92599.00;5115370;27;20100;-73
2024/01/03 09:40:55;;;;;;;9.63;6.25;;;;;;;8.36;97.18;92612.25;5114503;27;20503;-73
2024/01/03 09:43:24;;;;;;;9.82;4.72;;;;;;;8.36;97.46;92616.56;5113175;27;20057;-73
2024/01/03 09:45:52;;;;;;;10.10;5.53;;;;;;;8.44;97.06;92606.09;5121075;27;20047;-73
2024/01/03 09:48:19;;;;;;;9.63;6.03;;;;;;;8.49;97.19;92606.25;5120068;27;20052;-73
2024/01/03 09:50:46;;;;;;;10.55;5.43;;;;;;;8.43;97.25;92595.06;5125195;27;20055;-73
2024/01/03 09:53:14;;;;;;;10.93;5.40;;;;;;;8.49;96.57;92598.56;5120736;27;20051;-73
2024/01/03 09:55:41;;;;;;;7.38;4.57;;;;;;;8.42;96.85;92592.69;5121006;27;20039;-73
2024/01/03 09:58:08;;;;;;;7.30;4.80;;;;;;;8.36;96.59;92583.31;5113888;27;20058;-72
2024/01/03 10:00:36;;;;;;;8.05;5.47;;;;;;;8.41;97.02;92588.56;5113421;27;20598;-72
2024/01/03 10:03:04;;;;;;;11.43;6.65;;;;;;;8.41;96.89;92586.81;5112458;27;20408;-73
2024/01/03 10:05:31;;;;;;;8.43;5.47;;;;;;;8.42;97.36;92579.91;5114163;27;20132;-73
2024/01/03 10:07:58;;;;;;;6.40;4.10;;;;;;;8.34;98.43;92578.41;5125045;27;20437;-72
2024/01/03 10:10:32;;;;;;;8.13;5.68;;;;;;;8.37;99.66;92566.97;5117172;27;20393;-72
2024/01/03 10:13:14;;;;;;;10.30;6.53;;;;;;;8.24;100.00;92570.44;5113555;27;20043;-73
2024/01/03 10:15:43;;;;;;;8.63;5.15;;;;;;;8.18;100.00;92566.16;5117675;27;20122;-73
2024/01/03 10:18:10;;;;;;;10.55;5.72;;;;;;;7.93;100.00;92531.94;5112099;27;20070;-73
2024/01/03 10:20:37;;;;;;;26.40;12.27;;;;;;;8.15;100.00;92557.13;5111167;27;20070;-73
2024/01/03 10:23:09;;;;;;;14.82;7.53;;;;;;;8.06;100.00;92554.03;5115746;27;20076;-73
2024/01/03 10:25:36;;;;;;;41.42;19.20;;;;;;;8.11;100.00;92548.31;5113051;27;20049;-73
2024/01/03 10:28:04;;;;;;;16.08;6.88;;;;;;;8.13;100.00;92548.88;5109949;27;20044;-73
2024/01/03 10:30:31;;;;;;;10.05;5.43;;;;;;;8.02;100.00;92542.69;5114295;27;20046;-73
2024/01/03 10:33:00;;;;;;;5.55;3.53;;;;;;;8.02;100.00;92543.44;5112680;27;20058;-73
2024/01/03 10:35:28;;;;;;;8.35;3.88;;;;;;;8.08;100.00;92541.03;5113140;27;20464;-73
2024/01/03 10:37:56;;;;;;;6.55;3.75;;;;;;;8.11;100.00;92541.41;5111720;27;20507;-73
2024/01/03 10:40:25;;;;;;;13.68;6.45;;;;;;;8.10;100.00;92539.06;5116395;27;20054;-73
2024/01/03 10:42:53;;;;;;;28.27;10.25;;;;;;;8.16;100.00;92528.00;5114105;27;20044;-73
2024/01/03 10:45:20;;;;;;;6.18;3.50;;;;;;;8.14;100.00;92537.66;5110968;27;20039;-73
2024/01/03 10:47:47;;;;;;;16.02;7.05;;;;;;;8.18;100.00;92532.91;5119076;27;20055;-72
2024/01/03 10:50:15;;;;;;;23.25;10.32;;;;;;;8.11;100.00;92515.81;5111189;27;20411;-73
2024/01/03 10:52:43;;;;;;;8.80;3.95;;;;;;;8.14;100.00;92532.53;5111895;27;20052;-73
2024/01/03 10:55:13;;;;;;;5.60;3.15;;;;;;;8.02;100.00;92517.09;5118106;27;20045;-73
2024/01/03 10:57:44;;;;;;;6.22;3.80;;;;;;;8.11;100.00;92531.16;5114836;27;20508;-73
2024/01/03 11:00:20;;;;;;;8.70;4.68;;;;;;;8.12;100.00;92525.09;5112218;27;20415;-73
2024/01/03 11:02:54;;;;;;;20.92;9.15;;;;;;;8.11;100.00;92525.28;5112748;27;20054;-73
2024/01/03 11:05:33;;;;;;;7.47;3.78;;;;;;;8.16;100.00;92522.88;5110805;27;20493;-73
2024/01/03 11:08:05;;;;;;;19.05;9.23;;;;;;;8.04;100.00;92509.22;5110884;27;20044;-73
2024/01/03 11:10:49;;;;;;;43.60;20.67;;;;;;;8.12;100.00;92511.50;5112330;27;20607;-73
2024/01/03 11:13:32;;;;;;;35.38;17.90;;;;;;;8.21;100.00;92520.47;5111645;27;20051;-73
2024/01/03 11:16:00;;;;;;;17.25;6.03;;;;;;;8.12;100.00;92512.28;5110625;27;20412;-73
2024/01/03 11:18:55;;;;;;;71.57;37.95;;;;;;;8.20;100.00;92513.00;5112633;27;20506;-72
2024/01/03 11:21:43;;;;;;;29.13;16.73;;;;;;;8.26;100.00;92505.28;5111961;27;20051;-72
2024/01/03 11:24:56;;;;;;;16.30;9.35;;;;;;;8.23;100.00;92513.34;5111956;27;20050;-73
2024/01/03 11:27:28;;;;;;;35.20;23.95;;;;;;;8.30;100.00;92505.63;5111567;27;20116;-73
2024/01/03 11:29:54;;;;;;;15.50;9.68;;;;;;;8.24;100.00;92506.47;5111146;27;20051;-73
2024/01/03 11:32:32;;;;;;;14.38;8.45;;;;;;;8.18;100.00;92500.41;5108585;27;20051;-73
2024/01/03 11:35:00;;;;;;;16.60;9.38;;;;;;;8.21;100.00;92491.53;5113934;27;20051;-72
2024/01/03 11:37:39;;;;;;;15.15;7.40;;;;;;;8.22;100.00;92491.34;5111424;27;20044;-72
2024/01/03 11:40:08;;;;;;;8.80;5.55;;;;;;;8.21;100.00;92496.66;5114631;27;20054;-73
2024/01/03 11:42:38;;;;;;;9.85;6.32;;;;;;;8.18;100.00;92492.75;5111555;27;20052;-72
2024/01/03 11:45:08;;;;;;;11.43;7.07;;;;;;;8.08;100.00;92470.22;5111903;27;20595;-72
2024/01/03 11:47:36;;;;;;;8.45;5.50;;;;;;;8.08;100.00;92490.69;5111875;27;20050;-72
2024/01/03 11:50:04;;;;;;;6.82;4.53;;;;;;;8.00;100.00;92485.81;5110453;27;20053;-72